createdAt,value
2017-02-03T00:05:41.234Z,6.1
2017-02-03T00:15:52.466Z,5.9
2017-02-03T00:26:03.731Z,6
2017-02-03T00:36:14.983Z,6.2
2017-02-03T00:46:26.185Z,6.1
2017-02-03T00:56:37.318Z,6.3
2017-02-03T01:06:48.456Z,6.4
2017-02-03T01:16:59.612Z,5.9
2017-02-03T01:27:10.825Z,6.2
2017-02-03T01:37:22.020Z,6.2
2017-02-03T01:47:33.194Z,6.1
2017-02-03T01:57:44.454Z,6.3
2017-02-03T02:07:55.625Z,6.1
2017-02-03T02:18:06.805Z,5.9
2017-02-03T02:28:17.920Z,5.9
2017-02-03T02:38:29.091Z,5.9
2017-02-03T02:48:40.289Z,5.9
2017-02-03T02:58:51.441Z,5.8
2017-02-03T03:09:02.633Z,5.7
2017-02-03T03:19:13.838Z,5.6
2017-02-03T03:29:25.065Z,5.7
2017-02-03T03:39:36.305Z,5.8
2017-02-03T03:49:47.472Z,5.9
2017-02-03T03:59:58.616Z,5.9
2017-02-03T04:10:09.830Z,6
2017-02-03T04:20:21.148Z,5.9
2017-02-03T04:30:32.411Z,5.8
2017-02-03T04:40:43.611Z,6.5
2017-02-03T04:50:54.828Z,6.7
2017-02-03T05:01:05.967Z,6.3
2017-02-03T05:11:17.055Z,6.2
2017-02-03T05:21:28.113Z,6.1
2017-02-03T05:31:39.214Z,6.4
2017-02-03T05:41:50.260Z,6.5
2017-02-03T05:52:01.293Z,6.6
2017-02-03T06:02:12.296Z,6.7
2017-02-03T06:12:23.293Z,6.8
2017-02-03T06:22:34.293Z,7.1
2017-02-03T06:32:45.237Z,6.9
2017-02-03T06:42:56.183Z,6.9
2017-02-03T06:53:07.121Z,7
2017-02-03T07:03:18.078Z,7.1
2017-02-03T07:13:29.052Z,7.3
2017-02-03T07:23:39.935Z,7.3
2017-02-03T07:33:50.850Z,7.4
2017-02-03T07:44:01.781Z,7.5
2017-02-03T07:54:12.695Z,7.6
2017-02-03T08:04:23.495Z,7.8
2017-02-03T08:14:34.241Z,7.7
2017-02-03T08:24:44.965Z,7.7
2017-02-03T08:34:55.636Z,8
2017-02-03T08:45:06.362Z,8.2
2017-02-03T08:55:17.028Z,8.2
2017-02-03T09:05:27.624Z,8.3
2017-02-03T09:15:38.210Z,8.4
2017-02-03T09:25:48.728Z,8.5
2017-02-03T09:35:59.215Z,8.7
2017-02-03T09:46:09.626Z,8.8
2017-02-03T09:56:20.077Z,8.9
2017-02-03T10:06:30.531Z,8.8
2017-02-03T10:16:40.959Z,8.7
2017-02-03T10:26:51.339Z,8.8
2017-02-03T10:37:01.650Z,9.1
2017-02-03T10:47:11.989Z,9
2017-02-03T10:57:22.341Z,9.1
2017-02-03T11:07:32.668Z,9.1
2017-02-03T11:17:43.017Z,9.1
2017-02-03T11:27:53.383Z,9.1
2017-02-03T11:38:03.796Z,9.2
2017-02-03T11:48:14.175Z,9.3
2017-02-03T11:58:24.524Z,9.4
2017-02-03T12:08:34.724Z,9.4
2017-02-03T12:18:44.948Z,9.4
2017-02-03T12:28:55.210Z,9.3
2017-02-03T12:39:05.456Z,9.5
2017-02-03T12:49:15.640Z,9.6
2017-02-03T12:59:25.914Z,9.5
2017-02-03T13:09:36.221Z,9.6
2017-02-03T13:19:46.464Z,9.7
2017-02-03T13:29:56.678Z,9.7
2017-02-03T13:40:06.858Z,9.6
2017-02-03T13:50:17.070Z,9.9
2017-02-03T14:00:27.237Z,10.1
2017-02-03T14:10:37.113Z,10.9
2017-02-03T14:20:46.571Z,11
2017-02-03T14:30:55.850Z,11
2017-02-03T14:41:05.261Z,10.8
2017-02-03T14:51:14.994Z,10.6
2017-02-03T15:01:24.928Z,10.6
2017-02-03T15:11:35.021Z,10.6
2017-02-03T15:21:45.262Z,10.5
2017-02-03T15:31:55.556Z,10.4
2017-02-03T15:42:05.850Z,10.4
2017-02-03T15:52:16.244Z,10.4
2017-02-03T16:02:26.634Z,10.3
2017-02-03T16:12:37.066Z,10.3
2017-02-03T16:22:47.530Z,10.2
2017-02-03T16:32:57.960Z,10.2
2017-02-03T16:43:08.438Z,10
2017-02-03T16:53:18.915Z,9.9
2017-02-03T17:03:29.431Z,9.9
2017-02-03T17:13:39.933Z,9.8
2017-02-03T17:23:50.500Z,9.3
2017-02-03T17:34:01.114Z,9.1
2017-02-03T17:44:11.789Z,9
2017-02-03T17:54:22.458Z,8.9
2017-02-03T18:04:33.156Z,8.7
2017-02-03T18:14:43.959Z,8.6
2017-02-03T18:24:54.743Z,8.5
2017-02-03T18:35:05.637Z,8.5
2017-02-03T18:45:16.482Z,8.3
2017-02-03T18:55:27.398Z,8
2017-02-03T19:05:38.290Z,8
2017-02-03T19:15:49.203Z,8
2017-02-03T19:26:00.190Z,7.9
2017-02-03T19:36:11.127Z,8
2017-02-03T19:46:22.059Z,8
2017-02-03T19:56:32.974Z,7.9
2017-02-03T20:06:43.877Z,8
2017-02-03T20:16:54.798Z,8
2017-02-03T20:27:05.659Z,7.9
2017-02-03T20:37:16.532Z,7.8
2017-02-03T20:47:27.467Z,7.7
2017-02-03T20:57:38.428Z,7.6
2017-02-03T21:07:49.457Z,7.4
2017-02-03T21:18:00.496Z,7.3
2017-02-03T21:28:11.550Z,7.1
2017-02-03T21:38:22.662Z,6.9
2017-02-03T21:48:33.818Z,6.9
2017-02-03T21:58:44.959Z,6.8
2017-02-03T22:08:56.210Z,6.7
2017-02-03T22:19:07.203Z,6.6
2017-02-03T22:29:18.393Z,6.4
2017-02-03T22:39:29.687Z,6.4
2017-02-03T22:49:41.020Z,6.4
2017-02-03T22:59:52.371Z,6.2
2017-02-03T23:10:03.804Z,6.2
2017-02-03T23:20:15.166Z,6.3
2017-02-03T23:30:26.488Z,6
2017-02-03T23:40:37.778Z,6
2017-02-03T23:50:49.074Z,6.2
